createdAt,value
2023-03-05T00:00:20.402Z,101460.31
2023-03-05T00:02:49.268Z,101460.38
2023-03-05T00:05:16.943Z,101454.94
2023-03-05T00:07:44.411Z,101445.53
2023-03-05T00:10:12.434Z,101441.16
2023-03-05T00:12:40.412Z,101442.94
2023-03-05T00:15:10.768Z,101439.38
2023-03-05T00:17:40.408Z,101435.91
2023-03-05T00:20:10.877Z,101439.47
2023-03-05T00:22:38.499Z,101442.00
2023-03-05T00:25:07.079Z,101437.69
2023-03-05T00:27:34.578Z,101430.78
2023-03-05T00:30:03.203Z,101428.09
2023-03-05T00:32:30.866Z,101434.28
2023-03-05T00:34:58.800Z,101434.38
2023-03-05T00:37:27.655Z,101426.38
2023-03-05T00:39:55.544Z,101415.00
2023-03-05T00:42:23.069Z,101421.13
2023-03-05T00:44:51.367Z,101422.13
2023-03-05T00:47:19.477Z,101418.47
2023-03-05T00:49:47.346Z,101409.03
2023-03-05T00:52:15.816Z,101406.34
2023-03-05T00:54:45.055Z,101399.53
2023-03-05T00:57:12.858Z,101403.00
2023-03-05T00:59:40.519Z,101402.16
2023-03-05T01:02:08.448Z,101389.94
2023-03-05T01:04:36.834Z,101389.84
2023-03-05T01:07:06.157Z,101384.81
2023-03-05T01:09:35.364Z,101385.88
2023-03-05T01:12:04.371Z,101391.13
2023-03-05T01:14:34.553Z,101384.97
2023-03-05T01:17:03.341Z,101381.50
2023-03-05T01:19:31.872Z,101382.38
2023-03-05T01:22:00.108Z,101377.97
2023-03-05T01:24:27.626Z,101375.28
2023-03-05T01:26:55.214Z,101371.88
2023-03-05T01:29:24.219Z,101371.09
2023-03-05T01:31:52.351Z,101367.72
2023-03-05T01:34:21.232Z,101358.88
2023-03-05T01:36:49.935Z,101359.72
2023-03-05T01:39:17.495Z,101357.84
2023-03-05T01:41:45.698Z,101354.47
2023-03-05T01:44:25.383Z,101355.41
2023-03-05T01:46:57.096Z,101350.22
2023-03-05T01:49:27.771Z,101348.34
2023-03-05T01:52:07.209Z,101351.13
2023-03-05T01:54:37.730Z,101346.78
2023-03-05T01:57:10.734Z,101344.06
2023-03-05T01:59:42.817Z,101333.41
2023-03-05T02:02:11.316Z,101332.66
2023-03-05T02:04:43.516Z,101336.34
2023-03-05T02:07:12.600Z,101331.00
2023-03-05T02:09:40.701Z,101331.00
2023-03-05T02:12:10.383Z,101317.84
2023-03-05T02:14:43.415Z,101309.94
2023-03-05T02:17:13.333Z,101313.44
2023-03-05T02:19:52.036Z,101304.78
2023-03-05T02:22:23.337Z,101311.03
2023-03-05T02:24:53.306Z,101306.69
2023-03-05T02:27:27.104Z,101308.34
2023-03-05T02:29:55.750Z,101297.81
2023-03-05T02:32:23.311Z,101308.41
2023-03-05T02:34:52.946Z,101304.06
2023-03-05T02:37:22.596Z,101298.81
2023-03-05T02:39:52.488Z,101295.56
2023-03-05T02:42:20.095Z,101292.88
2023-03-05T02:44:47.771Z,101294.66
2023-03-05T02:47:15.359Z,101293.81
2023-03-05T02:49:43.616Z,101291.94
2023-03-05T02:52:12.329Z,101290.16
2023-03-05T02:55:08.404Z,101294.72
2023-03-05T02:57:36.817Z,101293.84
2023-03-05T03:00:05.134Z,101288.78
2023-03-05T03:02:33.076Z,101287.59
2023-03-05T03:05:00.585Z,101271.97
2023-03-05T03:07:28.309Z,101269.41
2023-03-05T03:09:58.329Z,101267.56
2023-03-05T03:12:27.132Z,101257.19
2023-03-05T03:14:56.339Z,101263.41
2023-03-05T03:17:28.428Z,101259.03
2023-03-05T03:19:57.315Z,101246.75
2023-03-05T03:22:24.791Z,101246.06
2023-03-05T03:24:54.320Z,101238.16
2023-03-05T03:27:21.798Z,101237.47
2023-03-05T03:29:51.101Z,101233.97
2023-03-05T03:32:18.803Z,101232.28
2023-03-05T03:34:49.345Z,101237.72
2023-03-05T03:37:17.090Z,101233.44
2023-03-05T03:39:44.648Z,101225.66
2023-03-05T03:42:12.194Z,101227.44
2023-03-05T03:44:40.337Z,101218.59
2023-03-05T03:47:09.221Z,101222.94
2023-03-05T03:49:37.750Z,101221.22
2023-03-05T03:52:05.703Z,101218.59
2023-03-05T03:54:33.879Z,101212.50
2023-03-05T03:57:02.400Z,101211.66
2023-03-05T03:59:30.044Z,101207.31
2023-03-05T04:01:58.441Z,101200.34
2023-03-05T04:04:28.916Z,101201.22
2023-03-05T04:06:56.646Z,101191.59
2023-03-05T04:09:27.718Z,101194.22
2023-03-05T04:11:56.329Z,101194.22
2023-03-05T04:14:23.803Z,101182.72
2023-03-05T04:16:51.469Z,101183.56
2023-03-05T04:19:19.091Z,101177.53
2023-03-05T04:21:49.346Z,101168.78
2023-03-05T04:24:18.393Z,101154.63
2023-03-05T04:26:46.339Z,101159.13
2023-03-05T04:29:13.821Z,101154.97
2023-03-05T04:31:42.676Z,101160.97
2023-03-05T04:34:12.417Z,101164.44
2023-03-05T04:36:40.123Z,101164.44
2023-03-05T04:39:09.107Z,101159.19
2023-03-05T04:41:37.003Z,101157.34
2023-03-05T04:44:04.942Z,101157.34
2023-03-05T04:46:33.388Z,101164.53
2023-03-05T04:49:01.385Z,101157.50
2023-03-05T04:51:28.986Z,101162.66
2023-03-05T04:53:56.567Z,101161.81
2023-03-05T04:56:26.737Z,101158.34
2023-03-05T04:58:54.337Z,101155.72
2023-03-05T05:01:24.788Z,101157.41
2023-03-05T05:03:52.366Z,101155.63
2023-03-05T05:06:23.892Z,101156.94
2023-03-05T05:08:51.643Z,101148.66
2023-03-05T05:11:20.396Z,101150.53
2023-03-05T05:13:49.468Z,101157.50
2023-03-05T05:16:17.434Z,101152.25
2023-03-05T05:18:45.044Z,101151.25
2023-03-05T05:21:15.322Z,101148.66
2023-03-05T05:23:45.834Z,101146.13
2023-03-05T05:26:14.532Z,101143.59
2023-03-05T05:28:43.049Z,101149.59
2023-03-05T05:31:14.539Z,101140.03
2023-03-05T05:33:42.417Z,101139.00
2023-03-05T05:36:13.522Z,101140.03
2023-03-05T05:38:42.417Z,101137.47
2023-03-05T05:41:11.694Z,101140.97
2023-03-05T05:43:39.326Z,101141.72
2023-03-05T05:46:12.331Z,101139.94
2023-03-05T05:48:41.529Z,101142.97
2023-03-05T05:51:10.996Z,101140.97
2023-03-05T05:53:39.497Z,101141.09
2023-03-05T05:56:08.314Z,101139.94
2023-03-05T05:58:35.967Z,101135.84
2023-03-05T06:01:04.100Z,101131.53
2023-03-05T06:03:31.771Z,101138.47
2023-03-05T06:06:02.423Z,101133.22
2023-03-05T06:08:32.330Z,101133.31
2023-03-05T06:10:59.829Z,101125.41
2023-03-05T06:13:30.709Z,101129.75
2023-03-05T06:15:59.029Z,101131.53
2023-03-05T06:18:26.995Z,101125.50
2023-03-05T06:20:56.184Z,101130.75
2023-03-05T06:23:25.603Z,101125.41
2023-03-05T06:25:55.408Z,101129.59
2023-03-05T06:28:22.892Z,101122.59
2023-03-05T06:30:52.386Z,101125.31
2023-03-05T06:33:20.401Z,101124.34
2023-03-05T06:35:50.471Z,101121.75
2023-03-05T06:38:18.182Z,101130.69
2023-03-05T06:40:47.312Z,101127.97
2023-03-05T06:43:14.872Z,101128.03
2023-03-05T06:45:43.464Z,101125.25
2023-03-05T06:48:12.692Z,101128.75
2023-03-05T06:50:41.040Z,101126.13
2023-03-05T06:53:09.805Z,101123.53
2023-03-05T06:55:39.596Z,101125.19
2023-03-05T06:58:09.361Z,101126.13
2023-03-05T07:00:36.865Z,101113.81
2023-03-05T07:03:05.074Z,101115.59
2023-03-05T07:05:34.166Z,101120.78
2023-03-05T07:08:04.027Z,101120.69
2023-03-05T07:10:31.550Z,101118.06
2023-03-05T07:13:02.418Z,101116.19
2023-03-05T07:15:32.113Z,101114.44
2023-03-05T07:18:01.327Z,101109.22
2023-03-05T07:20:30.310Z,101107.53
2023-03-05T07:22:58.025Z,101111.84
2023-03-05T07:25:26.267Z,101107.53
2023-03-05T07:27:54.132Z,101110.06
2023-03-05T07:30:21.791Z,101103.03
2023-03-05T07:32:54.409Z,101112.66
2023-03-05T07:35:24.408Z,101113.53
2023-03-05T07:37:54.843Z,101107.38
2023-03-05T07:40:22.836Z,101107.44
2023-03-05T07:42:51.459Z,101104.91
2023-03-05T07:45:29.059Z,101105.97
2023-03-05T07:47:58.360Z,101097.19
2023-03-05T07:50:25.860Z,101096.00
2023-03-05T07:52:53.707Z,101088.88
2023-03-05T07:55:21.855Z,101080.75
2023-03-05T07:57:49.374Z,101076.34
2023-03-05T08:00:18.442Z,101080.66
2023-03-05T08:02:46.057Z,101079.72
2023-03-05T08:05:14.950Z,101085.75
2023-03-05T08:07:42.495Z,101082.03
2023-03-05T08:10:12.081Z,101085.34
2023-03-05T08:12:40.667Z,101086.34
2023-03-05T08:15:09.305Z,101083.81
2023-03-05T08:17:37.691Z,101080.31
2023-03-05T08:20:14.386Z,101071.59
2023-03-05T08:22:44.144Z,101073.13
2023-03-05T08:25:13.451Z,101073.63
2023-03-05T08:27:43.430Z,101072.59
2023-03-05T08:30:14.344Z,101070.22
2023-03-05T08:32:41.915Z,101064.72
2023-03-05T08:35:12.376Z,101061.41
2023-03-05T08:37:39.923Z,101064.56
2023-03-05T08:40:11.041Z,101065.13
2023-03-05T08:42:38.578Z,101058.78
2023-03-05T08:45:07.006Z,101057.78
2023-03-05T08:47:34.661Z,101059.22
2023-03-05T08:50:02.216Z,101057.16
2023-03-05T08:52:29.745Z,101052.97
2023-03-05T08:54:57.507Z,101045.56
2023-03-05T08:57:27.339Z,101047.00
2023-03-05T08:59:56.706Z,101046.75
2023-03-05T09:02:24.395Z,101043.19
2023-03-05T09:04:52.167Z,101050.56
2023-03-05T09:07:19.753Z,101049.72
2023-03-05T09:09:47.427Z,101044.34
2023-03-05T09:12:16.361Z,101052.00
2023-03-05T09:14:45.231Z,101038.72
2023-03-05T09:17:16.324Z,101042.47
2023-03-05T09:19:43.897Z,101036.00
2023-03-05T09:22:11.450Z,101037.72
2023-03-05T09:24:40.711Z,101037.16
2023-03-05T09:27:08.456Z,101026.53
2023-03-05T09:29:36.336Z,101022.50
2023-03-05T09:32:05.474Z,101021.25
2023-03-05T09:34:34.501Z,101020.97
2023-03-05T09:37:02.798Z,101022.78
2023-03-05T09:39:31.353Z,101016.66
2023-03-05T09:42:23.283Z,101013.97
2023-03-05T09:45:04.523Z,101017.25
2023-03-05T09:47:52.790Z,101023.47
2023-03-05T09:50:34.323Z,101018.28
2023-03-05T09:53:08.399Z,101012.81
2023-03-05T09:55:40.280Z,101010.13
2023-03-05T09:58:14.356Z,101007.28
2023-03-05T10:00:45.106Z,101008.78
2023-03-05T10:03:22.881Z,101008.59
2023-03-05T10:06:02.420Z,101005.00
2023-03-05T10:08:45.724Z,101000.03
2023-03-05T10:11:34.409Z,100998.72
2023-03-05T10:14:03.660Z,101003.72
2023-03-05T10:17:07.385Z,100997.09
2023-03-05T10:20:05.245Z,100984.59
2023-03-05T10:22:39.151Z,100983.06
2023-03-05T10:25:20.366Z,100985.31
2023-03-05T10:27:54.277Z,100980.56
2023-03-05T10:30:55.038Z,100979.34
2023-03-05T10:33:33.712Z,100976.50
2023-03-05T10:36:24.175Z,100969.34
2023-03-05T10:39:12.544Z,100970.69
2023-03-05T10:41:49.893Z,100963.72
2023-03-05T10:44:25.592Z,100962.88
2023-03-05T10:46:55.178Z,100964.56
2023-03-05T10:49:30.398Z,100969.63
2023-03-05T10:52:08.786Z,100959.28
2023-03-05T10:54:41.639Z,100959.19
2023-03-05T10:57:19.347Z,100961.34
2023-03-05T10:59:51.392Z,100953.78
2023-03-05T11:02:21.653Z,100951.81
2023-03-05T11:04:50.085Z,100953.78
2023-03-05T11:07:38.037Z,100947.38
2023-03-05T11:10:21.197Z,100947.59
2023-03-05T11:12:54.346Z,100937.88
2023-03-05T11:15:30.160Z,100935.44
2023-03-05T11:18:17.930Z,100934.69
2023-03-05T11:20:46.392Z,100930.53
2023-03-05T11:23:18.308Z,100931.38
2023-03-05T11:25:53.482Z,100924.31
2023-03-05T11:28:32.885Z,100918.00
2023-03-05T11:31:20.668Z,100915.38
2023-03-05T11:33:57.336Z,100913.19
2023-03-05T11:36:27.477Z,100917.91
2023-03-05T11:38:59.654Z,100913.84
2023-03-05T11:41:37.129Z,100913.28
2023-03-05T11:44:13.572Z,100902.53
2023-03-05T11:46:44.231Z,100899.88
2023-03-05T11:49:17.331Z,100895.69
2023-03-05T11:51:49.794Z,100890.19
2023-03-05T11:54:24.392Z,100891.81
2023-03-05T11:56:52.837Z,100886.97
2023-03-05T11:59:26.697Z,100891.72
2023-03-05T12:01:56.579Z,100876.72
2023-03-05T12:04:25.421Z,100877.31
2023-03-05T12:06:57.217Z,100873.72
2023-03-05T12:09:34.717Z,100868.97
2023-03-05T12:12:10.630Z,100864.75
2023-03-05T12:14:45.092Z,100854.09
2023-03-05T12:17:19.752Z,100854.50
2023-03-05T12:19:54.454Z,100843.00
2023-03-05T12:22:24.316Z,100841.84
2023-03-05T12:24:54.411Z,100835.59
2023-03-05T12:27:36.922Z,100829.28
2023-03-05T12:30:06.067Z,100829.91
2023-03-05T12:33:00.909Z,100826.84
2023-03-05T12:35:38.603Z,100825.16
2023-03-05T12:38:26.687Z,100821.47
2023-03-05T12:41:43.032Z,100810.13
2023-03-05T12:44:23.581Z,100808.75
2023-03-05T12:47:23.264Z,100808.56
2023-03-05T12:49:50.958Z,100805.81
2023-03-05T12:52:27.626Z,100795.13
2023-03-05T12:55:01.960Z,100798.59
2023-03-05T12:57:31.273Z,100790.59
2023-03-05T13:00:06.000Z,100785.06
2023-03-05T13:02:37.145Z,100781.03
2023-03-05T13:05:15.920Z,100775.25
2023-03-05T13:08:07.932Z,100773.91
2023-03-05T13:10:36.336Z,100771.34
2023-03-05T13:13:04.169Z,100769.34
2023-03-05T13:15:34.415Z,100764.47
2023-03-05T13:18:08.296Z,100765.28
2023-03-05T13:20:39.386Z,100767.22
2023-03-05T13:23:23.510Z,100761.78
2023-03-05T13:25:59.858Z,100764.00
2023-03-05T13:28:28.258Z,100758.97
2023-03-05T13:30:59.459Z,100747.44
2023-03-05T13:33:30.107Z,100749.31
2023-03-05T13:35:58.102Z,100746.59
2023-03-05T13:38:30.810Z,100738.75
2023-03-05T13:41:09.010Z,100740.22
2023-03-05T13:43:44.138Z,100725.22
2023-03-05T13:46:13.718Z,100715.28
2023-03-05T13:48:41.497Z,100719.41
2023-03-05T13:51:11.822Z,100709.09
2023-03-05T13:53:43.351Z,100707.09
2023-03-05T13:56:15.854Z,100706.72
2023-03-05T13:58:50.626Z,100699.63
2023-03-05T14:01:43.669Z,100694.34
2023-03-05T14:04:21.394Z,100688.00
2023-03-05T14:06:52.937Z,100683.22
2023-03-05T14:09:23.475Z,100685.41
2023-03-05T14:11:56.923Z,100678.53
2023-03-05T14:14:26.109Z,100680.34
2023-03-05T14:16:55.173Z,100674.72
2023-03-05T14:19:36.510Z,100672.47
2023-03-05T14:22:06.823Z,100671.50
2023-03-05T14:24:34.803Z,100669.59
2023-03-05T14:27:08.669Z,100661.28
2023-03-05T14:29:37.387Z,100655.06
2023-03-05T14:32:10.502Z,100654.47
2023-03-05T14:34:43.664Z,100650.03
2023-03-05T14:37:24.454Z,100648.94
2023-03-05T14:39:55.476Z,100647.75
2023-03-05T14:42:32.352Z,100643.78
2023-03-05T14:45:02.023Z,100638.34
2023-03-05T14:47:31.282Z,100634.88
2023-03-05T14:49:58.753Z,100638.34
2023-03-05T14:52:26.829Z,100624.41
2023-03-05T14:54:55.739Z,100624.53
2023-03-05T14:57:29.115Z,100616.69
2023-03-05T14:59:56.729Z,100615.84
2023-03-05T15:02:27.017Z,100608.06
2023-03-05T15:04:56.442Z,100619.59
2023-03-05T15:07:30.177Z,100608.38
2023-03-05T15:10:00.677Z,100604.81
2023-03-05T15:12:28.331Z,100603.00
2023-03-05T15:15:01.347Z,100599.63
2023-03-05T15:17:35.342Z,100594.44
2023-03-05T15:20:09.979Z,100593.38
2023-03-05T15:22:38.289Z,100589.28
2023-03-05T15:25:06.874Z,100582.41
2023-03-05T15:27:36.350Z,100579.19
2023-03-05T15:30:04.487Z,100576.16
2023-03-05T15:32:32.844Z,100582.53
2023-03-05T15:35:00.892Z,100574.09
2023-03-05T15:37:29.776Z,100570.03
2023-03-05T15:39:57.390Z,100574.56
2023-03-05T15:42:25.816Z,100572.06
2023-03-05T15:44:54.350Z,100570.25
2023-03-05T15:47:22.431Z,100567.59
2023-03-05T15:49:51.425Z,100568.22
2023-03-05T15:52:19.349Z,100566.41
2023-03-05T15:54:48.223Z,100560.50
2023-03-05T15:57:15.733Z,100558.00
2023-03-05T15:59:43.383Z,100558.59
2023-03-05T16:02:10.929Z,100557.16
2023-03-05T16:04:39.354Z,100549.31
2023-03-05T16:07:07.472Z,100550.53
2023-03-05T16:09:39.138Z,100547.50
2023-03-05T16:12:13.220Z,100549.53
2023-03-05T16:14:42.297Z,100539.91
2023-03-05T16:17:10.092Z,100536.56
2023-03-05T16:19:41.396Z,100538.72
2023-03-05T16:22:09.891Z,100540.00
2023-03-05T16:24:39.403Z,100537.88
2023-03-05T16:27:10.511Z,100534.09
2023-03-05T16:29:38.256Z,100533.72
2023-03-05T16:32:07.141Z,100535.66
2023-03-05T16:34:35.436Z,100530.44
2023-03-05T16:37:04.536Z,100527.09
2023-03-05T16:39:32.298Z,100529.53
2023-03-05T16:42:00.706Z,100525.63
2023-03-05T16:44:29.612Z,100519.38
2023-03-05T16:46:57.207Z,100523.69
2023-03-05T16:49:24.822Z,100520.53
2023-03-05T16:51:52.408Z,100523.63
2023-03-05T16:54:22.848Z,100518.94
2023-03-05T16:56:50.417Z,100517.47
2023-03-05T16:59:17.985Z,100518.41
2023-03-05T17:01:47.418Z,100516.72
2023-03-05T17:04:15.085Z,100505.34
2023-03-05T17:06:45.941Z,100509.97
2023-03-05T17:09:13.789Z,100511.78
2023-03-05T17:11:41.401Z,100504.91
2023-03-05T17:14:09.428Z,100502.28
2023-03-05T17:16:37.112Z,100502.47
2023-03-05T17:19:05.980Z,100500.91
2023-03-05T17:21:33.495Z,100501.13
2023-03-05T17:24:01.107Z,100504.84
2023-03-05T17:26:28.779Z,100503.88
2023-03-05T17:28:56.740Z,100497.13
2023-03-05T17:31:24.283Z,100498.31
2023-03-05T17:33:52.354Z,100497.59
2023-03-05T17:36:24.351Z,100497.78
2023-03-05T17:38:52.639Z,100503.06
2023-03-05T17:41:21.361Z,100497.06
2023-03-05T17:43:48.908Z,100487.59
2023-03-05T17:46:17.323Z,100500.88
2023-03-05T17:48:46.038Z,100500.03
2023-03-05T17:51:16.214Z,100491.38
2023-03-05T17:53:45.883Z,100487.91
2023-03-05T17:56:17.084Z,100490.66
2023-03-05T17:58:45.420Z,100489.06
2023-03-05T18:01:12.965Z,100492.16
2023-03-05T18:03:40.709Z,100487.97
2023-03-05T18:06:08.284Z,100486.16
2023-03-05T18:08:36.432Z,100481.94
2023-03-05T18:11:05.548Z,100489.00
2023-03-05T18:13:33.910Z,100485.53
2023-03-05T18:16:01.971Z,100481.09
2023-03-05T18:18:30.405Z,100482.38
2023-03-05T18:20:57.921Z,100477.22
2023-03-05T18:23:25.484Z,100477.31
2023-03-05T18:25:53.276Z,100479.97
2023-03-05T18:28:22.140Z,100472.25
2023-03-05T18:30:49.703Z,100473.22
2023-03-05T18:33:19.914Z,100466.38
2023-03-05T18:35:49.519Z,100464.78
2023-03-05T18:38:17.294Z,100463.09
2023-03-05T18:40:46.300Z,100458.91
2023-03-05T18:43:17.079Z,100458.16
2023-03-05T18:45:47.481Z,100456.47
2023-03-05T18:48:15.350Z,100455.75
2023-03-05T18:50:44.405Z,100448.66
2023-03-05T18:53:13.668Z,100452.59
2023-03-05T18:55:42.606Z,100452.59
2023-03-05T18:58:13.968Z,100446.78
2023-03-05T19:00:43.626Z,100457.34
2023-03-05T19:03:13.036Z,100444.28
2023-03-05T19:05:41.587Z,100439.00
2023-03-05T19:08:09.213Z,100440.03
2023-03-05T19:10:36.788Z,100444.47
2023-03-05T19:13:18.525Z,100438.34
2023-03-05T19:15:46.089Z,100438.47
2023-03-05T19:18:14.938Z,100448.28
2023-03-05T19:20:42.456Z,100442.19
2023-03-05T19:23:10.019Z,100426.56
2023-03-05T19:25:37.506Z,100431.84
2023-03-05T19:28:05.175Z,100436.38
2023-03-05T19:30:32.659Z,100430.28
2023-03-05T19:33:00.450Z,100433.00
2023-03-05T19:35:29.423Z,100425.19
2023-03-05T19:37:57.284Z,100427.09
2023-03-05T19:40:25.170Z,100419.31
2023-03-05T19:42:52.724Z,100417.59
2023-03-05T19:45:20.269Z,100417.72
2023-03-05T19:47:47.783Z,100422.28
2023-03-05T19:50:16.764Z,100410.03
2023-03-05T19:52:45.647Z,100413.72
2023-03-05T19:55:13.913Z,100416.34
2023-03-05T19:57:41.397Z,100413.84
2023-03-05T20:00:10.444Z,100407.00
2023-03-05T20:02:37.954Z,100409.72
2023-03-05T20:05:06.026Z,100401.09
2023-03-05T20:07:33.536Z,100403.84
2023-03-05T20:10:02.427Z,100396.97
2023-03-05T20:12:31.168Z,100397.09
2023-03-05T20:14:59.425Z,100401.63
2023-03-05T20:17:27.096Z,100401.72
2023-03-05T20:19:58.740Z,100397.41
2023-03-05T20:22:26.393Z,100396.69
2023-03-05T20:24:53.878Z,100391.59
2023-03-05T20:27:23.092Z,100396.03
2023-03-05T20:29:50.625Z,100397.00
2023-03-05T20:32:18.740Z,100395.44
2023-03-05T20:34:46.252Z,100390.25
2023-03-05T20:37:14.366Z,100389.50
2023-03-05T20:39:42.080Z,100386.03
2023-03-05T20:42:11.363Z,100375.63
2023-03-05T20:44:40.163Z,100382.75
2023-03-05T20:47:23.552Z,100377.59
2023-03-05T20:49:55.102Z,100382.16
2023-03-05T20:52:22.609Z,100375.28
2023-03-05T20:54:50.294Z,100372.75
2023-03-05T20:57:19.789Z,100371.09
2023-03-05T20:59:49.347Z,100366.78
2023-03-05T21:02:18.200Z,100361.69
2023-03-05T21:04:45.774Z,100360.25
2023-03-05T21:07:15.842Z,100345.47
2023-03-05T21:09:43.466Z,100350.09
2023-03-05T21:12:11.616Z,100352.00
2023-03-05T21:14:40.663Z,100343.28
2023-03-05T21:17:09.702Z,100339.81
2023-03-05T21:19:39.158Z,100339.06
2023-03-05T21:22:08.385Z,100331.25
2023-03-05T21:24:51.891Z,100335.69
2023-03-05T21:27:19.529Z,100329.69
2023-03-05T21:29:47.010Z,100325.38
2023-03-05T21:32:16.174Z,100323.78
2023-03-05T21:34:43.982Z,100318.53
2023-03-05T21:37:12.050Z,100316.00
2023-03-05T21:39:39.525Z,100309.06
2023-03-05T21:42:07.183Z,100303.91
2023-03-05T21:44:34.831Z,100301.34
2023-03-05T21:47:02.840Z,100300.44
2023-03-05T21:49:31.694Z,100297.03
2023-03-05T21:52:08.846Z,100298.00
2023-03-05T21:54:36.966Z,100290.22
2023-03-05T21:57:05.439Z,100288.53
2023-03-05T21:59:33.056Z,100292.09
2023-03-05T22:02:00.648Z,100281.69
2023-03-05T22:04:28.236Z,100277.47
2023-03-05T22:06:57.626Z,100272.22
2023-03-05T22:09:26.422Z,100260.09
2023-03-05T22:11:54.707Z,100255.78
2023-03-05T22:14:22.295Z,100262.72
2023-03-05T22:16:53.065Z,100255.16
2023-03-05T22:19:20.814Z,100252.63
2023-03-05T22:21:49.057Z,100240.41
2023-03-05T22:24:18.412Z,100251.06
2023-03-05T22:26:46.716Z,100244.13
2023-03-05T22:29:16.865Z,100229.28
2023-03-05T22:31:45.378Z,100229.38
2023-03-05T22:34:12.892Z,100239.88
2023-03-05T22:36:40.417Z,100226.00
2023-03-05T22:39:08.892Z,100223.50
2023-03-05T22:41:37.764Z,100220.03
2023-03-05T22:44:06.336Z,100221.91
2023-03-05T22:46:34.047Z,100221.06
2023-03-05T22:49:01.584Z,100218.53
2023-03-05T22:51:29.161Z,100217.81
2023-03-05T22:53:56.835Z,100221.28
2023-03-05T22:56:24.312Z,100227.47
2023-03-05T22:58:55.366Z,100220.53
2023-03-05T23:01:26.495Z,100218.00
2023-03-05T23:03:58.771Z,100216.44
2023-03-05T23:06:28.434Z,100215.59
2023-03-05T23:08:56.725Z,100209.59
2023-03-05T23:11:24.235Z,100204.44
2023-03-05T23:13:51.760Z,100203.59
2023-03-05T23:16:20.587Z,100194.88
2023-03-05T23:18:48.113Z,100194.03
2023-03-05T23:21:17.431Z,100189.69
2023-03-05T23:23:44.971Z,100183.59
2023-03-05T23:26:13.632Z,100187.19
2023-03-05T23:28:41.134Z,100173.19
2023-03-05T23:31:08.690Z,100174.13
2023-03-05T23:33:39.086Z,100180.34
2023-03-05T23:36:10.599Z,100176.88
2023-03-05T23:38:38.125Z,100169.00
2023-03-05T23:41:09.310Z,100168.03
2023-03-05T23:43:37.347Z,100170.78
2023-03-05T23:46:11.560Z,100164.69
2023-03-05T23:48:42.004Z,100162.97
2023-03-05T23:51:10.858Z,100162.97
2023-03-05T23:53:38.889Z,100156.88
2023-03-05T23:56:10.888Z,100159.63
2023-03-05T23:58:40.385Z,100156.16
